sensor_id;sensor_type;location;lat;lon;timestamp;temperature;humidity
14995;DHT22;7593;49.006;8.372;2022-07-21T00:02:27;19.50;99.90
14995;DHT22;7593;49.006;8.372;2022-07-21T00:04:54;19.40;99.90
14995;DHT22;7593;49.006;8.372;2022-07-21T00:07:21;19.40;99.90
14995;DHT22;7593;49.006;8.372;2022-07-21T00:09:48;19.40;99.90
14995;DHT22;7593;49.006;8.372;2022-07-21T00:12:15;19.30;99.90
14995;DHT22;7593;49.006;8.372;2022-07-21T00:14:42;19.40;99.90
14995;DHT22;7593;49.006;8.372;2022-07-21T00:17:09;19.40;99.90
14995;DHT22;7593;49.006;8.372;2022-07-21T00:19:38;19.40;99.90
14995;DHT22;7593;49.006;8.372;2022-07-21T00:22:04;19.50;99.90
14995;DHT22;7593;49.006;8.372;2022-07-21T00:24:31;19.40;99.90
14995;DHT22;7593;49.006;8.372;2022-07-21T00:26:58;19.40;99.90
14995;DHT22;7593;49.006;8.372;2022-07-21T00:29:24;19.40;99.90
14995;DHT22;7593;49.006;8.372;2022-07-21T00:31:51;19.40;99.90
14995;DHT22;7593;49.006;8.372;2022-07-21T00:34:18;19.40;99.90
14995;DHT22;7593;49.006;8.372;2022-07-21T00:36:46;19.40;99.90
14995;DHT22;7593;49.006;8.372;2022-07-21T00:39:13;19.40;99.90
14995;DHT22;7593;49.006;8.372;2022-07-21T00:41:40;19.40;99.90
14995;DHT22;7593;49.006;8.372;2022-07-21T00:44:19;19.40;99.90
14995;DHT22;7593;49.006;8.372;2022-07-21T00:46:45;19.40;99.90
14995;DHT22;7593;49.006;8.372;2022-07-21T00:49:12;19.30;99.90
14995;DHT22;7593;49.006;8.372;2022-07-21T00:51:39;19.30;99.90
14995;DHT22;7593;49.006;8.372;2022-07-21T00:54:07;19.40;99.90
14995;DHT22;7593;49.006;8.372;2022-07-21T00:56:34;19.30;99.90
14995;DHT22;7593;49.006;8.372;2022-07-21T00:59:01;19.30;99.90
14995;DHT22;7593;49.006;8.372;2022-07-21T01:01:28;19.40;99.90
14995;DHT22;7593;49.006;8.372;2022-07-21T01:03:55;19.40;99.90
14995;DHT22;7593;49.006;8.372;2022-07-21T01:06:23;19.40;99.90
14995;DHT22;7593;49.006;8.372;2022-07-21T01:08:50;19.40;99.90
14995;DHT22;7593;49.006;8.372;2022-07-21T01:11:19;19.40;99.90
14995;DHT22;7593;49.006;8.372;2022-07-21T01:13:47;19.30;99.90
14995;DHT22;7593;49.006;8.372;2022-07-21T01:16:14;19.30;99.90
14995;DHT22;7593;49.006;8.372;2022-07-21T01:18:41;19.30;99.90
14995;DHT22;7593;49.006;8.372;2022-07-21T01:21:21;19.30;99.90
14995;DHT22;7593;49.006;8.372;2022-07-21T01:23:53;19.30;99.90
14995;DHT22;7593;49.006;8.372;2022-07-21T01:26:20;19.30;99.90
14995;DHT22;7593;49.006;8.372;2022-07-21T01:28:47;19.30;99.90
14995;DHT22;7593;49.006;8.372;2022-07-21T01:31:13;19.30;99.90
14995;DHT22;7593;49.006;8.372;2022-07-21T01:33:40;19.30;99.90
14995;DHT22;7593;49.006;8.372;2022-07-21T01:36:08;19.30;99.90
14995;DHT22;7593;49.006;8.372;2022-07-21T01:38:36;19.40;99.90
14995;DHT22;7593;49.006;8.372;2022-07-21T01:41:17;19.40;99.90
14995;DHT22;7593;49.006;8.372;2022-07-21T01:44:00;19.40;99.90
14995;DHT22;7593;49.006;8.372;2022-07-21T01:46:28;19.50;99.90
14995;DHT22;7593;49.006;8.372;2022-07-21T01:48:55;19.50;99.90
14995;DHT22;7593;49.006;8.372;2022-07-21T01:51:22;19.40;99.90
14995;DHT22;7593;49.006;8.372;2022-07-21T01:53:51;19.50;99.90
14995;DHT22;7593;49.006;8.372;2022-07-21T01:56:19;19.50;99.90
14995;DHT22;7593;49.006;8.372;2022-07-21T01:58:46;19.50;99.90
14995;DHT22;7593;49.006;8.372;2022-07-21T02:01:14;19.40;99.90
14995;DHT22;7593;49.006;8.372;2022-07-21T02:03:42;19.40;99.90
14995;DHT22;7593;49.006;8.372;2022-07-21T02:06:08;19.50;99.90
14995;DHT22;7593;49.006;8.372;2022-07-21T02:08:35;19.50;99.90
14995;DHT22;7593;49.006;8.372;2022-07-21T02:11:04;19.50;99.90
14995;DHT22;7593;49.006;8.372;2022-07-21T02:13:32;19.50;99.90
14995;DHT22;7593;49.006;8.372;2022-07-21T02:15:59;19.50;99.90
14995;DHT22;7593;49.006;8.372;2022-07-21T02:18:26;19.60;99.90
14995;DHT22;7593;49.006;8.372;2022-07-21T02:20:53;19.60;99.90
14995;DHT22;7593;49.006;8.372;2022-07-21T02:23:20;19.60;99.90
14995;DHT22;7593;49.006;8.372;2022-07-21T02:25:47;19.70;99.90
14995;DHT22;7593;49.006;8.372;2022-07-21T02:28:15;19.70;99.90
14995;DHT22;7593;49.006;8.372;2022-07-21T02:30:42;19.80;99.90
14995;DHT22;7593;49.006;8.372;2022-07-21T02:33:09;19.80;99.90
14995;DHT22;7593;49.006;8.372;2022-07-21T02:35:36;19.80;99.90
14995;DHT22;7593;49.006;8.372;2022-07-21T02:38:03;19.80;99.90
14995;DHT22;7593;49.006;8.372;2022-07-21T02:40:30;19.80;99.90
14995;DHT22;7593;49.006;8.372;2022-07-21T02:42:58;19.90;99.90
14995;DHT22;7593;49.006;8.372;2022-07-21T02:45:26;19.90;99.90
14995;DHT22;7593;49.006;8.372;2022-07-21T02:47:55;19.90;99.90
14995;DHT22;7593;49.006;8.372;2022-07-21T02:50:25;19.90;99.90
14995;DHT22;7593;49.006;8.372;2022-07-21T02:52:54;19.90;99.90
14995;DHT22;7593;49.006;8.372;2022-07-21T02:55:22;20.00;99.90
14995;DHT22;7593;49.006;8.372;2022-07-21T02:57:49;20.00;99.90
14995;DHT22;7593;49.006;8.372;2022-07-21T03:00:16;20.00;99.90
14995;DHT22;7593;49.006;8.372;2022-07-21T03:02:44;20.00;99.90
14995;DHT22;7593;49.006;8.372;2022-07-21T03:05:11;20.10;99.90
14995;DHT22;7593;49.006;8.372;2022-07-21T03:07:38;20.10;99.90
14995;DHT22;7593;49.006;8.372;2022-07-21T03:10:05;20.10;99.90
14995;DHT22;7593;49.006;8.372;2022-07-21T03:12:33;20.10;99.90
14995;DHT22;7593;49.006;8.372;2022-07-21T03:14:59;20.10;99.90
14995;DHT22;7593;49.006;8.372;2022-07-21T03:17:26;20.20;99.90
14995;DHT22;7593;49.006;8.372;2022-07-21T03:19:54;20.10;99.90
14995;DHT22;7593;49.006;8.372;2022-07-21T03:22:21;20.10;99.90
14995;DHT22;7593;49.006;8.372;2022-07-21T03:24:48;20.20;99.90
14995;DHT22;7593;49.006;8.372;2022-07-21T03:27:16;20.10;99.90
14995;DHT22;7593;49.006;8.372;2022-07-21T03:29:43;20.20;99.90
14995;DHT22;7593;49.006;8.372;2022-07-21T03:32:10;20.20;99.90
14995;DHT22;7593;49.006;8.372;2022-07-21T03:34:36;20.20;99.90
14995;DHT22;7593;49.006;8.372;2022-07-21T03:37:05;20.20;99.90
14995;DHT22;7593;49.006;8.372;2022-07-21T03:39:32;20.20;99.90
14995;DHT22;7593;49.006;8.372;2022-07-21T03:41:59;20.20;99.90
14995;DHT22;7593;49.006;8.372;2022-07-21T03:44:25;20.10;99.90
14995;DHT22;7593;49.006;8.372;2022-07-21T03:46:52;20.10;99.90
14995;DHT22;7593;49.006;8.372;2022-07-21T03:49:20;20.10;99.90
14995;DHT22;7593;49.006;8.372;2022-07-21T03:51:48;20.10;99.90
14995;DHT22;7593;49.006;8.372;2022-07-21T03:54:16;20.10;99.90
14995;DHT22;7593;49.006;8.372;2022-07-21T03:56:43;20.10;99.90
14995;DHT22;7593;49.006;8.372;2022-07-21T03:59:10;20.10;99.90
14995;DHT22;7593;49.006;8.372;2022-07-21T04:01:37;20.10;99.90
14995;DHT22;7593;49.006;8.372;2022-07-21T04:04:04;20.10;99.90
14995;DHT22;7593;49.006;8.372;2022-07-21T04:06:31;20.00;99.90
14995;DHT22;7593;49.006;8.372;2022-07-21T04:08:57;20.00;99.90
14995;DHT22;7593;49.006;8.372;2022-07-21T04:11:25;20.00;99.90
14995;DHT22;7593;49.006;8.372;2022-07-21T04:13:52;20.00;99.90
14995;DHT22;7593;49.006;8.372;2022-07-21T04:16:19;20.00;99.90
14995;DHT22;7593;49.006;8.372;2022-07-21T04:18:46;20.00;99.90
14995;DHT22;7593;49.006;8.372;2022-07-21T04:21:13;20.00;99.90
14995;DHT22;7593;49.006;8.372;2022-07-21T04:23:40;20.00;99.90
14995;DHT22;7593;49.006;8.372;2022-07-21T04:26:06;20.00;99.90
14995;DHT22;7593;49.006;8.372;2022-07-21T04:28:35;20.00;99.90
14995;DHT22;7593;49.006;8.372;2022-07-21T04:31:02;20.00;99.90
14995;DHT22;7593;49.006;8.372;2022-07-21T04:33:28;20.00;99.90
14995;DHT22;7593;49.006;8.372;2022-07-21T04:35:55;20.00;99.90
14995;DHT22;7593;49.006;8.372;2022-07-21T04:38:22;20.00;99.90
14995;DHT22;7593;49.006;8.372;2022-07-21T04:40:49;20.00;99.90
14995;DHT22;7593;49.006;8.372;2022-07-21T04:43:16;20.10;99.90
14995;DHT22;7593;49.006;8.372;2022-07-21T04:45:44;20.10;99.90
14995;DHT22;7593;49.006;8.372;2022-07-21T04:48:10;20.10;99.90
14995;DHT22;7593;49.006;8.372;2022-07-21T04:50:37;20.10;99.90
14995;DHT22;7593;49.006;8.372;2022-07-21T04:53:04;20.10;99.90
14995;DHT22;7593;49.006;8.372;2022-07-21T04:55:31;20.10;99.90
14995;DHT22;7593;49.006;8.372;2022-07-21T04:57:58;20.20;99.90
14995;DHT22;7593;49.006;8.372;2022-07-21T05:00:25;20.20;99.90
14995;DHT22;7593;49.006;8.372;2022-07-21T05:02:53;20.30;99.90
14995;DHT22;7593;49.006;8.372;2022-07-21T05:05:21;20.40;99.90
14995;DHT22;7593;49.006;8.372;2022-07-21T05:07:49;20.40;99.90
14995;DHT22;7593;49.006;8.372;2022-07-21T05:10:17;20.50;99.90
14995;DHT22;7593;49.006;8.372;2022-07-21T05:12:46;20.60;99.90
14995;DHT22;7593;49.006;8.372;2022-07-21T05:15:13;20.60;99.90
14995;DHT22;7593;49.006;8.372;2022-07-21T05:17:41;20.60;99.90
14995;DHT22;7593;49.006;8.372;2022-07-21T05:20:10;20.60;99.90
14995;DHT22;7593;49.006;8.372;2022-07-21T05:22:37;20.60;99.90
14995;DHT22;7593;49.006;8.372;2022-07-21T05:25:06;20.60;99.90
14995;DHT22;7593;49.006;8.372;2022-07-21T05:27:33;20.60;99.90
14995;DHT22;7593;49.006;8.372;2022-07-21T05:30:00;20.60;99.90
14995;DHT22;7593;49.006;8.372;2022-07-21T05:32:27;20.70;99.90
14995;DHT22;7593;49.006;8.372;2022-07-21T05:34:53;20.70;99.90
14995;DHT22;7593;49.006;8.372;2022-07-21T05:37:22;20.70;99.90
14995;DHT22;7593;49.006;8.372;2022-07-21T05:39:48;20.70;99.90
14995;DHT22;7593;49.006;8.372;2022-07-21T05:42:15;20.70;99.90
14995;DHT22;7593;49.006;8.372;2022-07-21T05:44:43;20.70;99.90
14995;DHT22;7593;49.006;8.372;2022-07-21T05:47:10;20.70;99.90
14995;DHT22;7593;49.006;8.372;2022-07-21T05:49:36;20.70;99.90
14995;DHT22;7593;49.006;8.372;2022-07-21T05:52:04;20.80;99.90
14995;DHT22;7593;49.006;8.372;2022-07-21T05:54:32;20.80;99.90
14995;DHT22;7593;49.006;8.372;2022-07-21T05:56:59;20.90;99.90
14995;DHT22;7593;49.006;8.372;2022-07-21T05:59:27;20.90;99.90
14995;DHT22;7593;49.006;8.372;2022-07-21T06:01:55;21.00;99.90
14995;DHT22;7593;49.006;8.372;2022-07-21T06:04:22;21.00;99.90
14995;DHT22;7593;49.006;8.372;2022-07-21T06:06:48;21.00;99.90
14995;DHT22;7593;49.006;8.372;2022-07-21T06:09:15;21.00;99.90
14995;DHT22;7593;49.006;8.372;2022-07-21T06:11:43;21.00;99.90
14995;DHT22;7593;49.006;8.372;2022-07-21T06:14:10;21.00;99.90
14995;DHT22;7593;49.006;8.372;2022-07-21T06:16:37;21.20;99.90
14995;DHT22;7593;49.006;8.372;2022-07-21T06:19:04;21.20;99.90
14995;DHT22;7593;49.006;8.372;2022-07-21T06:21:32;21.30;99.90
14995;DHT22;7593;49.006;8.372;2022-07-21T06:23:59;21.30;99.90
14995;DHT22;7593;49.006;8.372;2022-07-21T06:26:27;21.40;99.90
14995;DHT22;7593;49.006;8.372;2022-07-21T06:28:55;21.50;99.90
14995;DHT22;7593;49.006;8.372;2022-07-21T06:31:22;21.90;99.90
14995;DHT22;7593;49.006;8.372;2022-07-21T06:33:48;22.40;99.90
14995;DHT22;7593;49.006;8.372;2022-07-21T06:36:15;23.10;99.90
14995;DHT22;7593;49.006;8.372;2022-07-21T06:38:42;23.50;99.90
14995;DHT22;7593;49.006;8.372;2022-07-21T06:41:10;24.10;99.90
14995;DHT22;7593;49.006;8.372;2022-07-21T06:43:37;24.50;99.90
14995;DHT22;7593;49.006;8.372;2022-07-21T06:46:05;24.90;99.90
14995;DHT22;7593;49.006;8.372;2022-07-21T06:48:32;24.90;99.90
14995;DHT22;7593;49.006;8.372;2022-07-21T06:51:00;24.70;99.90
14995;DHT22;7593;49.006;8.372;2022-07-21T06:53:27;24.40;99.90
14995;DHT22;7593;49.006;8.372;2022-07-21T06:55:53;23.90;99.90
14995;DHT22;7593;49.006;8.372;2022-07-21T06:58:21;23.50;99.90
14995;DHT22;7593;49.006;8.372;2022-07-21T07:00:50;23.10;99.90
14995;DHT22;7593;49.006;8.372;2022-07-21T07:03:19;22.90;99.90
14995;DHT22;7593;49.006;8.372;2022-07-21T07:05:48;22.80;99.90
14995;DHT22;7593;49.006;8.372;2022-07-21T07:08:15;22.70;99.90
14995;DHT22;7593;49.006;8.372;2022-07-21T07:10:43;22.60;99.90
14995;DHT22;7593;49.006;8.372;2022-07-21T07:13:10;22.50;99.90
14995;DHT22;7593;49.006;8.372;2022-07-21T07:15:37;22.40;99.90
14995;DHT22;7593;49.006;8.372;2022-07-21T07:18:04;22.30;99.90
14995;DHT22;7593;49.006;8.372;2022-07-21T07:20:32;22.30;99.90
14995;DHT22;7593;49.006;8.372;2022-07-21T07:22:59;22.20;99.90
14995;DHT22;7593;49.006;8.372;2022-07-21T07:25:26;22.30;99.90
14995;DHT22;7593;49.006;8.372;2022-07-21T07:27:53;22.30;99.90
14995;DHT22;7593;49.006;8.372;2022-07-21T07:30:23;22.40;99.90
14995;DHT22;7593;49.006;8.372;2022-07-21T07:32:50;22.70;99.90
14995;DHT22;7593;49.006;8.372;2022-07-21T07:35:17;23.00;99.90
14995;DHT22;7593;49.006;8.372;2022-07-21T07:37:45;23.20;99.90
14995;DHT22;7593;49.006;8.372;2022-07-21T07:40:15;23.30;99.90
14995;DHT22;7593;49.006;8.372;2022-07-21T07:42:42;23.20;99.90
14995;DHT22;7593;49.006;8.372;2022-07-21T07:45:10;23.10;99.90
14995;DHT22;7593;49.006;8.372;2022-07-21T07:47:37;23.20;99.90
14995;DHT22;7593;49.006;8.372;2022-07-21T07:50:06;23.20;99.90
14995;DHT22;7593;49.006;8.372;2022-07-21T07:52:34;23.10;99.90
14995;DHT22;7593;49.006;8.372;2022-07-21T07:55:03;23.50;99.90
14995;DHT22;7593;49.006;8.372;2022-07-21T07:57:32;23.90;99.90
14995;DHT22;7593;49.006;8.372;2022-07-21T07:59:59;24.20;99.90
14995;DHT22;7593;49.006;8.372;2022-07-21T08:02:26;24.50;99.90
14995;DHT22;7593;49.006;8.372;2022-07-21T08:04:56;24.60;99.90
14995;DHT22;7593;49.006;8.372;2022-07-21T08:07:23;25.00;99.90
14995;DHT22;7593;49.006;8.372;2022-07-21T08:09:49;25.70;99.90
14995;DHT22;7593;49.006;8.372;2022-07-21T08:12:18;26.10;99.90
14995;DHT22;7593;49.006;8.372;2022-07-21T08:14:44;26.30;99.90
14995;DHT22;7593;49.006;8.372;2022-07-21T08:17:11;26.30;99.90
14995;DHT22;7593;49.006;8.372;2022-07-21T08:19:38;26.20;99.90
14995;DHT22;7593;49.006;8.372;2022-07-21T08:22:04;26.20;99.90
14995;DHT22;7593;49.006;8.372;2022-07-21T08:24:31;26.10;99.90
14995;DHT22;7593;49.006;8.372;2022-07-21T08:26:58;25.80;99.90
14995;DHT22;7593;49.006;8.372;2022-07-21T08:29:26;25.70;99.90
14995;DHT22;7593;49.006;8.372;2022-07-21T08:31:53;25.90;99.90
14995;DHT22;7593;49.006;8.372;2022-07-21T08:34:20;26.40;99.90
14995;DHT22;7593;49.006;8.372;2022-07-21T08:36:47;27.20;99.90
14995;DHT22;7593;49.006;8.372;2022-07-21T08:39:14;27.80;99.90
14995;DHT22;7593;49.006;8.372;2022-07-21T08:41:40;27.90;99.90
14995;DHT22;7593;49.006;8.372;2022-07-21T08:44:07;27.40;99.90
14995;DHT22;7593;49.006;8.372;2022-07-21T08:46:38;26.70;99.90
14995;DHT22;7593;49.006;8.372;2022-07-21T08:49:08;26.20;99.90
14995;DHT22;7593;49.006;8.372;2022-07-21T08:51:36;25.80;99.90
14995;DHT22;7593;49.006;8.372;2022-07-21T08:54:04;25.80;99.90
14995;DHT22;7593;49.006;8.372;2022-07-21T08:56:31;25.80;99.90
14995;DHT22;7593;49.006;8.372;2022-07-21T08:58:58;26.00;99.90
14995;DHT22;7593;49.006;8.372;2022-07-21T09:01:24;26.00;99.90
14995;DHT22;7593;49.006;8.372;2022-07-21T09:03:53;25.90;99.90
14995;DHT22;7593;49.006;8.372;2022-07-21T09:06:20;25.80;99.90
14995;DHT22;7593;49.006;8.372;2022-07-21T09:08:48;25.60;99.90
14995;DHT22;7593;49.006;8.372;2022-07-21T09:11:18;25.60;99.90
14995;DHT22;7593;49.006;8.372;2022-07-21T09:13:47;25.50;99.90
14995;DHT22;7593;49.006;8.372;2022-07-21T09:16:37;25.50;99.90
14995;DHT22;7593;49.006;8.372;2022-07-21T09:19:06;25.90;99.90
14995;DHT22;7593;49.006;8.372;2022-07-21T09:21:34;26.50;99.90
14995;DHT22;7593;49.006;8.372;2022-07-21T09:24:19;27.10;99.90
14995;DHT22;7593;49.006;8.372;2022-07-21T09:27:05;27.60;99.90
14995;DHT22;7593;49.006;8.372;2022-07-21T09:29:39;28.00;99.90
14995;DHT22;7593;49.006;8.372;2022-07-21T09:32:18;28.40;99.90
14995;DHT22;7593;49.006;8.372;2022-07-21T09:34:47;28.70;99.90
14995;DHT22;7593;49.006;8.372;2022-07-21T09:37:15;28.90;99.90
14995;DHT22;7593;49.006;8.372;2022-07-21T09:39:48;29.20;99.90
14995;DHT22;7593;49.006;8.372;2022-07-21T09:42:21;29.50;99.90
14995;DHT22;7593;49.006;8.372;2022-07-21T09:44:50;29.80;99.90
14995;DHT22;7593;49.006;8.372;2022-07-21T09:47:19;29.90;99.90
14995;DHT22;7593;49.006;8.372;2022-07-21T09:49:47;30.00;99.90
14995;DHT22;7593;49.006;8.372;2022-07-21T09:52:19;30.30;99.90
14995;DHT22;7593;49.006;8.372;2022-07-21T09:54:46;30.40;99.30
14995;DHT22;7593;49.006;8.372;2022-07-21T09:57:14;30.40;98.30
14995;DHT22;7593;49.006;8.372;2022-07-21T09:59:43;30.30;98.10
14995;DHT22;7593;49.006;8.372;2022-07-21T10:02:15;30.40;98.50
14995;DHT22;7593;49.006;8.372;2022-07-21T10:04:44;30.70;98.20
14995;DHT22;7593;49.006;8.372;2022-07-21T10:07:13;31.10;97.40
14995;DHT22;7593;49.006;8.372;2022-07-21T10:09:43;31.10;96.30
14995;DHT22;7593;49.006;8.372;2022-07-21T10:12:10;31.20;96.30
14995;DHT22;7593;49.006;8.372;2022-07-21T10:14:37;31.40;96.20
14995;DHT22;7593;49.006;8.372;2022-07-21T10:17:04;31.60;95.10
14995;DHT22;7593;49.006;8.372;2022-07-21T10:19:36;31.80;93.70
14995;DHT22;7593;49.006;8.372;2022-07-21T10:22:09;31.90;93.60
14995;DHT22;7593;49.006;8.372;2022-07-21T10:24:41;31.90;94.40
14995;DHT22;7593;49.006;8.372;2022-07-21T10:27:10;32.40;93.90
14995;DHT22;7593;49.006;8.372;2022-07-21T10:29:57;32.90;92.30
14995;DHT22;7593;49.006;8.372;2022-07-21T10:32:29;33.30;91.70
14995;DHT22;7593;49.006;8.372;2022-07-21T10:34:57;33.50;90.30
14995;DHT22;7593;49.006;8.372;2022-07-21T10:37:44;33.70;88.30
14995;DHT22;7593;49.006;8.372;2022-07-21T10:40:38;33.90;86.40
14995;DHT22;7593;49.006;8.372;2022-07-21T10:43:37;33.90;84.50
14995;DHT22;7593;49.006;8.372;2022-07-21T10:46:36;33.80;83.70
14995;DHT22;7593;49.006;8.372;2022-07-21T10:49:07;33.80;84.30
14995;DHT22;7593;49.006;8.372;2022-07-21T10:51:35;34.10;85.60
14995;DHT22;7593;49.006;8.372;2022-07-21T10:54:23;34.50;84.60
14995;DHT22;7593;49.006;8.372;2022-07-21T10:57:26;34.50;83.60
14995;DHT22;7593;49.006;8.372;2022-07-21T11:00:16;34.20;84.40
14995;DHT22;7593;49.006;8.372;2022-07-21T11:02:46;33.90;84.70
14995;DHT22;7593;49.006;8.372;2022-07-21T11:05:13;33.90;84.70
14995;DHT22;7593;49.006;8.372;2022-07-21T11:08:09;34.20;83.30
14995;DHT22;7593;49.006;8.372;2022-07-21T11:10:36;34.40;80.50
14995;DHT22;7593;49.006;8.372;2022-07-21T11:13:05;33.70;81.00
14995;DHT22;7593;49.006;8.372;2022-07-21T11:15:54;32.80;81.90
14995;DHT22;7593;49.006;8.372;2022-07-21T11:18:23;31.80;83.70
14995;DHT22;7593;49.006;8.372;2022-07-21T11:21:09;31.00;85.50
14995;DHT22;7593;49.006;8.372;2022-07-21T11:23:42;30.50;87.00
14995;DHT22;7593;49.006;8.372;2022-07-21T11:26:10;30.70;87.50
14995;DHT22;7593;49.006;8.372;2022-07-21T11:28:39;30.80;86.10
14995;DHT22;7593;49.006;8.372;2022-07-21T11:31:12;30.60;87.10
14995;DHT22;7593;49.006;8.372;2022-07-21T11:33:40;30.50;88.10
14995;DHT22;7593;49.006;8.372;2022-07-21T11:36:08;30.50;88.10
14995;DHT22;7593;49.006;8.372;2022-07-21T11:38:34;30.60;89.20
14995;DHT22;7593;49.006;8.372;2022-07-21T11:41:15;31.40;88.00
14995;DHT22;7593;49.006;8.372;2022-07-21T11:43:45;31.80;84.70
14995;DHT22;7593;49.006;8.372;2022-07-21T11:46:13;32.00;84.00
14995;DHT22;7593;49.006;8.372;2022-07-21T11:48:40;32.30;84.10
14995;DHT22;7593;49.006;8.372;2022-07-21T11:51:07;32.50;82.50
14995;DHT22;7593;49.006;8.372;2022-07-21T11:53:34;32.90;81.30
14995;DHT22;7593;49.006;8.372;2022-07-21T11:56:01;32.80;80.40
14995;DHT22;7593;49.006;8.372;2022-07-21T11:58:28;32.90;80.40
14995;DHT22;7593;49.006;8.372;2022-07-21T12:01:07;32.90;80.00
14995;DHT22;7593;49.006;8.372;2022-07-21T12:03:34;33.10;80.00
14995;DHT22;7593;49.006;8.372;2022-07-21T12:06:12;33.20;79.50
14995;DHT22;7593;49.006;8.372;2022-07-21T12:08:40;33.20;78.70
14995;DHT22;7593;49.006;8.372;2022-07-21T12:11:09;33.20;78.60
14995;DHT22;7593;49.006;8.372;2022-07-21T12:13:54;33.40;77.20
14995;DHT22;7593;49.006;8.372;2022-07-21T12:16:22;33.20;77.40
14995;DHT22;7593;49.006;8.372;2022-07-21T12:19:08;33.10;78.00
14995;DHT22;7593;49.006;8.372;2022-07-21T12:21:44;33.30;77.60
14995;DHT22;7593;49.006;8.372;2022-07-21T12:24:11;33.30;77.50
14995;DHT22;7593;49.006;8.372;2022-07-21T12:26:38;33.40;77.50
14995;DHT22;7593;49.006;8.372;2022-07-21T12:29:05;33.40;77.20
14995;DHT22;7593;49.006;8.372;2022-07-21T12:31:34;33.40;75.30
14995;DHT22;7593;49.006;8.372;2022-07-21T12:34:11;33.30;74.20
14995;DHT22;7593;49.006;8.372;2022-07-21T12:36:40;33.20;75.20
14995;DHT22;7593;49.006;8.372;2022-07-21T12:39:15;33.20;76.40
14995;DHT22;7593;49.006;8.372;2022-07-21T12:42:03;33.10;77.70
14995;DHT22;7593;49.006;8.372;2022-07-21T12:44:31;33.30;77.30
14995;DHT22;7593;49.006;8.372;2022-07-21T12:47:12;33.70;75.80
14995;DHT22;7593;49.006;8.372;2022-07-21T12:49:57;34.20;74.60
14995;DHT22;7593;49.006;8.372;2022-07-21T12:52:24;34.30;73.70
14995;DHT22;7593;49.006;8.372;2022-07-21T12:54:52;34.40;73.80
14995;DHT22;7593;49.006;8.372;2022-07-21T12:57:19;34.50;72.20
14995;DHT22;7593;49.006;8.372;2022-07-21T12:59:46;34.60;72.30
14995;DHT22;7593;49.006;8.372;2022-07-21T13:02:14;34.90;71.40
14995;DHT22;7593;49.006;8.372;2022-07-21T13:04:41;35.10;70.10
14995;DHT22;7593;49.006;8.372;2022-07-21T13:07:08;35.00;70.30
14995;DHT22;7593;49.006;8.372;2022-07-21T13:09:34;34.70;71.30
14995;DHT22;7593;49.006;8.372;2022-07-21T13:12:07;34.40;70.70
14995;DHT22;7593;49.006;8.372;2022-07-21T13:14:39;34.20;71.00
14995;DHT22;7593;49.006;8.372;2022-07-21T13:17:18;34.20;70.00
14995;DHT22;7593;49.006;8.372;2022-07-21T13:19:44;34.10;70.00
14995;DHT22;7593;49.006;8.372;2022-07-21T13:22:11;34.00;71.10
14995;DHT22;7593;49.006;8.372;2022-07-21T13:24:38;34.30;70.60
14995;DHT22;7593;49.006;8.372;2022-07-21T13:27:05;34.50;69.40
14995;DHT22;7593;49.006;8.372;2022-07-21T13:29:32;34.50;69.60
14995;DHT22;7593;49.006;8.372;2022-07-21T13:31:59;34.60;70.00
14995;DHT22;7593;49.006;8.372;2022-07-21T13:34:27;34.50;69.20
14995;DHT22;7593;49.006;8.372;2022-07-21T13:36:54;34.00;69.80
14995;DHT22;7593;49.006;8.372;2022-07-21T13:39:20;34.00;69.50
14995;DHT22;7593;49.006;8.372;2022-07-21T13:41:51;33.90;69.80
14995;DHT22;7593;49.006;8.372;2022-07-21T13:44:18;33.80;70.60
14995;DHT22;7593;49.006;8.372;2022-07-21T13:46:45;33.50;71.70
14995;DHT22;7593;49.006;8.372;2022-07-21T13:49:12;33.70;71.90
14995;DHT22;7593;49.006;8.372;2022-07-21T13:51:40;33.80;71.70
14995;DHT22;7593;49.006;8.372;2022-07-21T13:54:07;33.70;72.30
14995;DHT22;7593;49.006;8.372;2022-07-21T13:56:34;33.80;71.70
14995;DHT22;7593;49.006;8.372;2022-07-21T13:59:01;33.90;70.70
14995;DHT22;7593;49.006;8.372;2022-07-21T14:01:28;33.70;70.70
14995;DHT22;7593;49.006;8.372;2022-07-21T14:03:55;33.50;71.60
14995;DHT22;7593;49.006;8.372;2022-07-21T14:06:21;33.50;71.20
14995;DHT22;7593;49.006;8.372;2022-07-21T14:08:50;33.40;71.30
14995;DHT22;7593;49.006;8.372;2022-07-21T14:11:17;33.40;71.80
14995;DHT22;7593;49.006;8.372;2022-07-21T14:13:44;33.10;71.20
14995;DHT22;7593;49.006;8.372;2022-07-21T14:16:11;32.80;72.40
14995;DHT22;7593;49.006;8.372;2022-07-21T14:18:38;32.50;73.40
14995;DHT22;7593;49.006;8.372;2022-07-21T14:21:05;32.60;74.20
14995;DHT22;7593;49.006;8.372;2022-07-21T14:23:32;32.80;74.20
14995;DHT22;7593;49.006;8.372;2022-07-21T14:26:00;33.00;74.20
14995;DHT22;7593;49.006;8.372;2022-07-21T14:28:27;33.40;74.10
14995;DHT22;7593;49.006;8.372;2022-07-21T14:30:54;33.80;72.60
14995;DHT22;7593;49.006;8.372;2022-07-21T14:33:20;34.10;72.20
14995;DHT22;7593;49.006;8.372;2022-07-21T14:35:47;34.30;70.90
14995;DHT22;7593;49.006;8.372;2022-07-21T14:38:14;34.20;71.20
14995;DHT22;7593;49.006;8.372;2022-07-21T14:40:41;34.20;70.80
14995;DHT22;7593;49.006;8.372;2022-07-21T14:43:09;34.30;69.70
14995;DHT22;7593;49.006;8.372;2022-07-21T14:45:36;34.20;70.20
14995;DHT22;7593;49.006;8.372;2022-07-21T14:48:04;34.10;69.70
14995;DHT22;7593;49.006;8.372;2022-07-21T14:50:33;34.10;69.60
14995;DHT22;7593;49.006;8.372;2022-07-21T14:53:00;34.10;69.70
14995;DHT22;7593;49.006;8.372;2022-07-21T14:55:27;33.90;69.90
14995;DHT22;7593;49.006;8.372;2022-07-21T14:57:56;33.70;69.80
14995;DHT22;7593;49.006;8.372;2022-07-21T15:00:24;33.40;70.00
14995;DHT22;7593;49.006;8.372;2022-07-21T15:02:51;33.10;70.30
14995;DHT22;7593;49.006;8.372;2022-07-21T15:05:18;32.80;70.80
14995;DHT22;7593;49.006;8.372;2022-07-21T15:07:45;32.50;71.00
14995;DHT22;7593;49.006;8.372;2022-07-21T15:10:12;32.10;71.70
14995;DHT22;7593;49.006;8.372;2022-07-21T15:12:39;31.80;72.40
14995;DHT22;7593;49.006;8.372;2022-07-21T15:15:06;31.40;72.80
14995;DHT22;7593;49.006;8.372;2022-07-21T15:17:35;31.00;73.70
14995;DHT22;7593;49.006;8.372;2022-07-21T15:20:03;30.70;75.00
14995;DHT22;7593;49.006;8.372;2022-07-21T15:22:30;30.40;75.60
14995;DHT22;7593;49.006;8.372;2022-07-21T15:24:59;30.30;76.70
14995;DHT22;7593;49.006;8.372;2022-07-21T15:27:26;30.40;77.50
14995;DHT22;7593;49.006;8.372;2022-07-21T15:29:53;30.60;77.90
14995;DHT22;7593;49.006;8.372;2022-07-21T15:32:20;30.90;77.00
14995;DHT22;7593;49.006;8.372;2022-07-21T15:34:48;31.10;76.40
14995;DHT22;7593;49.006;8.372;2022-07-21T15:37:15;31.20;75.80
14995;DHT22;7593;49.006;8.372;2022-07-21T15:39:42;31.20;76.10
14995;DHT22;7593;49.006;8.372;2022-07-21T15:42:10;31.20;76.20
14995;DHT22;7593;49.006;8.372;2022-07-21T15:44:37;31.40;75.70
14995;DHT22;7593;49.006;8.372;2022-07-21T15:47:05;31.40;75.70
14995;DHT22;7593;49.006;8.372;2022-07-21T15:49:32;31.40;74.70
14995;DHT22;7593;49.006;8.372;2022-07-21T15:52:00;31.00;75.00
14995;DHT22;7593;49.006;8.372;2022-07-21T15:54:28;30.70;76.20
14995;DHT22;7593;49.006;8.372;2022-07-21T15:56:55;30.50;77.20